createdAt,value
2023-01-22T00:00:26.588Z,47.73
2023-01-22T00:01:28.576Z,48.96
2023-01-22T00:02:26.609Z,46.07
2023-01-22T00:03:26.603Z,47.05
2023-01-22T00:04:26.562Z,50.94
2023-01-22T00:05:26.610Z,46.06
2023-01-22T00:06:26.554Z,56.52
2023-01-22T00:07:26.580Z,51.57
2023-01-22T00:08:26.762Z,55.07
2023-01-22T00:09:26.536Z,52.54
2023-01-22T00:10:26.521Z,51.53
2023-01-22T00:11:26.509Z,57.25
2023-01-22T00:12:26.571Z,52.90
2023-01-22T00:13:26.513Z,47.10
2023-01-22T00:14:26.561Z,56.39
2023-01-22T00:15:26.483Z,56.68
2023-01-22T00:16:26.474Z,56.39
2023-01-22T00:17:26.605Z,53.74
2023-01-22T00:18:26.455Z,53.79
2023-01-22T00:19:26.465Z,50.92
2023-01-22T00:20:26.441Z,59.36
2023-01-22T00:21:26.435Z,55.76
2023-01-22T00:22:26.475Z,48.41
2023-01-22T00:23:26.420Z,52.75
2023-01-22T00:24:26.409Z,55.64
2023-01-22T00:25:26.415Z,48.84
2023-01-22T00:26:26.400Z,48.93
2023-01-22T00:27:26.457Z,57.72
2023-01-22T00:28:26.371Z,48.00
2023-01-22T00:29:27.369Z,50.49
2023-01-22T00:30:26.364Z,48.71
2023-01-22T00:31:26.449Z,55.89
2023-01-22T00:32:26.371Z,52.01
2023-01-22T00:33:26.344Z,49.25
2023-01-22T00:34:26.333Z,51.00
2023-01-22T00:35:26.353Z,55.37
2023-01-22T00:36:26.319Z,50.58
2023-01-22T00:37:26.343Z,48.93
2023-01-22T00:38:26.304Z,49.86
2023-01-22T00:39:26.298Z,50.50
2023-01-22T00:40:26.287Z,52.84
2023-01-22T00:41:26.305Z,55.30
2023-01-22T00:42:26.301Z,55.11
2023-01-22T00:43:26.407Z,55.34
2023-01-22T00:44:26.282Z,50.52
2023-01-22T00:45:26.256Z,54.66
2023-01-22T00:46:26.259Z,50.15
2023-01-22T00:47:26.233Z,45.91
2023-01-22T00:48:26.259Z,49.00
2023-01-22T00:49:26.234Z,47.57
2023-01-22T00:50:26.252Z,52.17
2023-01-22T00:51:26.321Z,53.83
2023-01-22T00:52:26.202Z,59.34
2023-01-22T00:53:26.217Z,57.31
2023-01-22T00:54:26.178Z,58.46
2023-01-22T00:55:26.180Z,61.77
2023-01-22T00:56:26.165Z,55.51
2023-01-22T00:57:26.255Z,50.61
2023-01-22T00:58:26.285Z,57.50
2023-01-22T00:59:26.157Z,55.00
2023-01-22T01:00:26.254Z,51.75
2023-01-22T01:01:26.141Z,53.18
2023-01-22T01:02:26.135Z,46.62
2023-01-22T01:03:26.262Z,46.86
2023-01-22T01:04:26.111Z,52.06
2023-01-22T01:05:26.109Z,53.66
2023-01-22T01:06:26.168Z,48.62
2023-01-22T01:07:26.121Z,51.72
2023-01-22T01:08:26.111Z,53.45
2023-01-22T01:09:26.199Z,47.65
2023-01-22T01:10:26.108Z,49.71
2023-01-22T01:11:26.065Z,49.55
2023-01-22T01:12:26.059Z,45.22
2023-01-22T01:13:26.148Z,51.96
2023-01-22T01:14:26.043Z,49.82
2023-01-22T01:15:26.033Z,56.07
2023-01-22T01:16:26.091Z,56.59
2023-01-22T01:17:26.020Z,55.30
2023-01-22T01:18:26.035Z,51.79
2023-01-22T01:19:26.016Z,54.04
2023-01-22T01:20:26.015Z,49.24
2023-01-22T01:21:25.997Z,60.63
2023-01-22T01:22:25.979Z,47.48
2023-01-22T01:23:25.995Z,45.53
2023-01-22T01:24:25.996Z,49.81
2023-01-22T01:25:25.959Z,51.47
2023-01-22T01:26:25.951Z,58.36
2023-01-22T01:27:25.963Z,49.69
2023-01-22T01:28:25.955Z,51.91
2023-01-22T01:29:25.998Z,59.16
2023-01-22T01:30:25.921Z,53.06
2023-01-22T01:31:26.002Z,52.97
2023-01-22T01:32:26.915Z,48.83
2023-01-22T01:33:25.902Z,46.26
2023-01-22T01:34:26.026Z,48.00
2023-01-22T01:35:25.890Z,53.07
2023-01-22T01:36:48.836Z,52.24
2023-01-22T01:37:28.527Z,50.94
2023-01-22T01:38:25.867Z,45.86
2023-01-22T01:39:26.023Z,54.03
2023-01-22T01:40:25.908Z,52.32
2023-01-22T01:41:25.840Z,58.44
2023-01-22T01:42:25.833Z,55.04
2023-01-22T01:43:25.833Z,53.54
2023-01-22T01:44:26.052Z,51.54
2023-01-22T01:45:25.887Z,49.28
2023-01-22T01:46:25.841Z,52.94
2023-01-22T01:47:25.800Z,48.38
2023-01-22T01:48:25.787Z,46.61
2023-01-22T01:49:26.073Z,47.83
2023-01-22T01:50:25.780Z,48.20
2023-01-22T01:51:25.864Z,55.09
2023-01-22T01:52:25.770Z,62.60
2023-01-22T01:53:25.765Z,52.87
2023-01-22T01:54:26.091Z,47.59
2023-01-22T01:55:25.745Z,45.84
2023-01-22T01:56:25.735Z,52.42
2023-01-22T01:57:25.724Z,56.17
2023-01-22T01:58:25.721Z,49.34
2023-01-22T01:59:26.107Z,47.17
2023-01-22T02:00:25.755Z,51.88
2023-01-22T02:01:25.855Z,46.25
2023-01-22T02:02:25.691Z,54.99
2023-01-22T02:03:25.683Z,48.75
2023-01-22T02:04:26.129Z,50.96
2023-01-22T02:05:25.666Z,47.53
2023-01-22T02:06:25.665Z,48.02
2023-01-22T02:07:25.653Z,54.16
2023-01-22T02:08:25.650Z,50.06
2023-01-22T02:09:25.666Z,47.35
2023-01-22T02:10:25.647Z,52.01
2023-01-22T02:11:25.622Z,45.49
2023-01-22T02:12:25.615Z,47.29
2023-01-22T02:13:25.615Z,53.64
2023-01-22T02:14:25.626Z,53.65
2023-01-22T02:15:25.607Z,55.99
2023-01-22T02:16:25.634Z,53.09
2023-01-22T02:17:25.659Z,58.15
2023-01-22T02:18:25.584Z,49.94
2023-01-22T02:19:25.593Z,61.11
2023-01-22T02:20:25.568Z,53.68
2023-01-22T02:21:25.557Z,52.71
2023-01-22T02:22:25.579Z,52.31
2023-01-22T02:23:25.557Z,46.95
2023-01-22T02:24:25.534Z,56.70
2023-01-22T02:25:25.550Z,55.76
2023-01-22T02:26:25.524Z,57.60
2023-01-22T02:27:25.515Z,54.78
2023-01-22T02:28:25.548Z,47.77
2023-01-22T02:29:25.493Z,45.89
2023-01-22T02:30:25.511Z,55.39
2023-01-22T02:31:25.514Z,51.37
2023-01-22T02:32:25.473Z,52.55
2023-01-22T02:33:31.243Z,52.05
2023-01-22T02:34:26.534Z,48.49
2023-01-22T02:35:25.470Z,58.17
2023-01-22T02:36:25.438Z,58.26
2023-01-22T02:37:25.430Z,62.58
2023-01-22T02:38:25.424Z,55.37
2023-01-22T02:39:25.414Z,54.54
2023-01-22T02:40:25.433Z,57.96
2023-01-22T02:41:25.399Z,47.52
2023-01-22T02:42:25.391Z,50.02
2023-01-22T02:43:25.387Z,61.53
2023-01-22T02:44:25.412Z,64.33
2023-01-22T02:45:25.408Z,55.69
2023-01-22T02:46:25.370Z,52.79
2023-01-22T02:47:25.352Z,48.67
2023-01-22T02:48:26.367Z,54.46
2023-01-22T02:49:25.347Z,53.91
2023-01-22T02:50:25.438Z,55.32
2023-01-22T02:51:25.360Z,51.46
2023-01-22T02:52:25.325Z,50.55
2023-01-22T02:53:25.318Z,46.00
2023-01-22T02:54:25.310Z,53.13
2023-01-22T02:55:25.327Z,53.74
2023-01-22T02:56:25.295Z,53.81
2023-01-22T02:57:25.285Z,58.81
2023-01-22T02:58:25.279Z,55.25
2023-01-22T02:59:25.276Z,51.55
2023-01-22T03:00:25.301Z,55.86
2023-01-22T03:01:25.268Z,57.51
2023-01-22T03:02:25.278Z,49.26
2023-01-22T03:03:25.244Z,50.15
2023-01-22T03:04:25.235Z,52.49
2023-01-22T03:05:25.261Z,46.40
2023-01-22T03:06:25.296Z,62.45
2023-01-22T03:07:25.216Z,58.70
2023-01-22T03:08:25.203Z,60.58
2023-01-22T03:09:25.196Z,49.86
2023-01-22T03:10:25.185Z,65.79
2023-01-22T03:11:25.221Z,55.95
2023-01-22T03:12:25.170Z,54.53
2023-01-22T03:13:25.161Z,50.27
2023-01-22T03:14:25.160Z,50.87
2023-01-22T03:15:25.154Z,49.82
2023-01-22T03:16:25.207Z,49.41
2023-01-22T03:17:25.151Z,55.91
2023-01-22T03:18:25.934Z,55.19
2023-01-22T03:19:25.120Z,49.70
2023-01-22T03:20:25.128Z,45.60
2023-01-22T03:21:25.132Z,55.17
2023-01-22T03:22:25.190Z,46.11
2023-01-22T03:23:25.085Z,53.36
2023-01-22T03:24:25.079Z,55.94
2023-01-22T03:25:25.071Z,55.39
2023-01-22T03:26:25.086Z,50.75
2023-01-22T03:27:25.055Z,47.30
2023-01-22T03:28:25.056Z,46.47
2023-01-22T03:29:25.041Z,46.99
2023-01-22T03:30:25.032Z,49.79
2023-01-22T03:31:25.120Z,50.41
2023-01-22T03:32:25.020Z,45.73
2023-01-22T03:33:25.005Z,52.69
2023-01-22T03:34:25.002Z,52.33
2023-01-22T03:35:24.995Z,51.57
2023-01-22T03:36:25.016Z,45.22
2023-01-22T03:37:24.983Z,44.64
2023-01-22T03:38:25.049Z,44.13
2023-01-22T03:39:24.967Z,49.29
2023-01-22T03:40:24.956Z,47.75
2023-01-22T03:41:24.974Z,48.07
2023-01-22T03:42:24.947Z,49.14
2023-01-22T03:43:24.936Z,46.33
2023-01-22T03:44:24.929Z,46.51
2023-01-22T03:45:24.936Z,56.03
2023-01-22T03:46:25.008Z,54.57
2023-01-22T03:47:24.921Z,52.60
2023-01-22T03:48:24.924Z,47.71
2023-01-22T03:49:24.896Z,57.77
2023-01-22T03:50:24.886Z,51.93
2023-01-22T03:51:24.970Z,55.33
2023-01-22T03:52:24.866Z,53.23
2023-01-22T03:53:24.859Z,47.21
2023-01-22T03:54:24.934Z,49.93
2023-01-22T03:55:24.846Z,57.44
2023-01-22T03:56:24.871Z,51.88
2023-01-22T03:57:24.838Z,58.51
2023-01-22T03:58:24.826Z,52.87
2023-01-22T03:59:24.816Z,53.74
2023-01-22T04:00:24.932Z,54.43
2023-01-22T04:01:24.864Z,47.70
2023-01-22T04:02:24.858Z,48.13
2023-01-22T04:03:24.789Z,48.55
2023-01-22T04:04:24.782Z,44.92
2023-01-22T04:05:24.775Z,53.92
2023-01-22T04:06:24.764Z,53.34
2023-01-22T04:07:24.789Z,52.60
2023-01-22T04:08:24.753Z,52.73
2023-01-22T04:09:24.747Z,51.65
2023-01-22T04:10:24.813Z,52.54
2023-01-22T04:11:24.741Z,57.05
2023-01-22T04:12:24.750Z,57.22
2023-01-22T04:13:24.722Z,49.47
2023-01-22T04:14:24.712Z,57.16
2023-01-22T04:15:24.709Z,50.01
2023-01-22T04:16:24.729Z,54.77
2023-01-22T04:17:26.711Z,56.84
2023-01-22T04:18:25.685Z,51.11
2023-01-22T04:19:24.678Z,51.94
2023-01-22T04:20:24.686Z,57.31
2023-01-22T04:21:24.667Z,51.88
2023-01-22T04:22:24.679Z,57.45
2023-01-22T04:23:24.653Z,55.33
2023-01-22T04:24:24.641Z,49.39
2023-01-22T04:25:24.631Z,59.98
2023-01-22T04:26:24.700Z,58.96
2023-01-22T04:27:24.642Z,50.95
2023-01-22T04:28:24.613Z,51.95
2023-01-22T04:29:24.601Z,56.45
2023-01-22T04:30:25.622Z,52.76
2023-01-22T04:31:24.637Z,50.93
2023-01-22T04:32:24.605Z,53.30
2023-01-22T04:33:24.571Z,55.00
2023-01-22T04:34:24.566Z,54.54
2023-01-22T04:35:24.588Z,58.51
2023-01-22T04:36:24.556Z,56.49
2023-01-22T04:37:24.548Z,50.79
2023-01-22T04:38:24.554Z,55.70
2023-01-22T04:39:24.536Z,51.12
2023-01-22T04:40:24.555Z,55.22
2023-01-22T04:41:24.528Z,53.17
2023-01-22T04:42:24.591Z,51.02
2023-01-22T04:43:24.509Z,54.65
2023-01-22T04:44:24.499Z,48.46
2023-01-22T04:45:24.517Z,49.44
2023-01-22T04:46:24.525Z,45.35
2023-01-22T04:47:24.502Z,53.33
2023-01-22T04:48:24.473Z,57.58
2023-01-22T04:49:24.460Z,66.74
2023-01-22T04:50:24.476Z,57.46
2023-01-22T04:51:24.521Z,53.45
2023-01-22T04:52:24.440Z,55.39
2023-01-22T04:53:24.434Z,51.18
2023-01-22T04:54:24.435Z,46.39
2023-01-22T04:55:24.468Z,53.06
2023-01-22T04:56:24.415Z,62.10
2023-01-22T04:57:24.407Z,51.24
2023-01-22T04:58:24.473Z,58.08
2023-01-22T04:59:24.395Z,58.16
2023-01-22T05:00:24.413Z,52.97
2023-01-22T05:01:24.405Z,56.85
2023-01-22T05:02:24.456Z,61.35
2023-01-22T05:03:24.368Z,54.55
2023-01-22T05:04:24.359Z,59.98
2023-01-22T05:05:24.371Z,55.58
2023-01-22T05:06:24.385Z,54.15
2023-01-22T05:07:24.344Z,46.93
2023-01-22T05:08:24.332Z,53.06
2023-01-22T05:09:24.323Z,54.36
2023-01-22T05:10:24.322Z,54.60
2023-01-22T05:11:24.325Z,62.41
2023-01-22T05:12:24.328Z,65.55
2023-01-22T05:13:24.295Z,48.84
2023-01-22T05:14:24.369Z,49.97
2023-01-22T05:15:25.324Z,48.41
2023-01-22T05:16:25.297Z,56.13
2023-01-22T05:17:24.265Z,59.58
2023-01-22T05:18:24.258Z,50.45
2023-01-22T05:19:24.239Z,47.75
2023-01-22T05:20:25.238Z,53.38
2023-01-22T05:21:24.269Z,52.56
2023-01-22T05:22:24.223Z,46.49
2023-01-22T05:23:24.219Z,58.50
2023-01-22T05:24:24.215Z,54.47
2023-01-22T05:25:24.210Z,49.31
2023-01-22T05:26:24.217Z,54.24
2023-01-22T05:27:24.195Z,50.72
2023-01-22T05:28:24.184Z,55.82
2023-01-22T05:29:24.173Z,48.99
2023-01-22T05:30:24.274Z,60.40
2023-01-22T05:31:24.327Z,61.90
2023-01-22T05:32:24.149Z,52.98
2023-01-22T05:33:24.143Z,55.84
2023-01-22T05:34:24.132Z,54.17
2023-01-22T05:35:24.141Z,48.36
2023-01-22T05:36:24.142Z,57.93
2023-01-22T05:37:24.123Z,57.07
2023-01-22T05:38:24.098Z,62.44
2023-01-22T05:39:24.301Z,57.14
2023-01-22T05:40:25.092Z,54.75
2023-01-22T05:41:24.102Z,47.07
2023-01-22T05:42:24.077Z,51.29
2023-01-22T05:43:24.068Z,59.68
2023-01-22T05:44:24.060Z,54.21
2023-01-22T05:45:24.050Z,47.59
2023-01-22T05:46:24.189Z,47.63
2023-01-22T05:47:24.040Z,54.88
2023-01-22T05:48:24.025Z,53.42
2023-01-22T05:49:24.020Z,55.50
2023-01-22T05:50:24.008Z,55.28
2023-01-22T05:51:24.062Z,53.79
2023-01-22T05:52:23.997Z,45.84
2023-01-22T05:53:23.991Z,50.19
2023-01-22T05:54:23.980Z,56.10
2023-01-22T05:55:23.974Z,56.02
2023-01-22T05:56:23.992Z,52.38
2023-01-22T05:57:23.961Z,46.31
2023-01-22T05:58:23.953Z,54.65
2023-01-22T05:59:23.949Z,57.75
2023-01-22T06:00:23.935Z,57.43
2023-01-22T06:01:23.953Z,52.04
2023-01-22T06:02:24.071Z,49.21
2023-01-22T06:03:23.943Z,46.65
2023-01-22T06:04:23.911Z,47.52
2023-01-22T06:05:23.966Z,52.24
2023-01-22T06:06:23.916Z,59.95
2023-01-22T06:07:23.885Z,56.95
2023-01-22T06:08:23.883Z,54.38
2023-01-22T06:09:23.884Z,50.33
2023-01-22T06:10:23.866Z,51.92
2023-01-22T06:11:23.883Z,50.78
2023-01-22T06:12:23.854Z,57.48
2023-01-22T06:13:23.840Z,52.08
2023-01-22T06:14:23.848Z,51.72
2023-01-22T06:15:23.825Z,54.08
2023-01-22T06:16:23.848Z,50.92
2023-01-22T06:17:23.815Z,50.66
2023-01-22T06:18:23.879Z,63.01
2023-01-22T06:19:23.803Z,57.17
2023-01-22T06:20:23.792Z,50.88
2023-01-22T06:21:23.806Z,50.15
2023-01-22T06:22:23.783Z,52.69
2023-01-22T06:23:23.768Z,47.48
2023-01-22T06:24:23.765Z,53.68
2023-01-22T06:25:23.757Z,65.85
2023-01-22T06:26:23.773Z,55.96
2023-01-22T06:27:23.744Z,53.33
2023-01-22T06:28:23.735Z,53.93
2023-01-22T06:29:23.723Z,51.71
2023-01-22T06:30:23.720Z,55.19
2023-01-22T06:31:23.800Z,55.18
2023-01-22T06:32:23.707Z,46.85
2023-01-22T06:33:23.698Z,51.19
2023-01-22T06:34:23.761Z,60.57
2023-01-22T06:35:23.685Z,66.27
2023-01-22T06:36:23.699Z,55.13
2023-01-22T06:37:23.687Z,55.29
2023-01-22T06:38:23.657Z,54.39
2023-01-22T06:39:23.651Z,52.76
2023-01-22T06:40:23.639Z,56.39
2023-01-22T06:41:23.658Z,56.77
2023-01-22T06:42:23.630Z,56.71
2023-01-22T06:43:23.620Z,48.68
2023-01-22T06:44:23.621Z,44.58
2023-01-22T06:45:23.613Z,59.18
2023-01-22T06:46:23.652Z,55.76
2023-01-22T06:47:23.594Z,57.24
2023-01-22T06:48:23.597Z,56.33
2023-01-22T06:49:23.701Z,52.08
2023-01-22T06:50:23.648Z,58.12
2023-01-22T06:51:23.627Z,50.87
2023-01-22T06:52:23.576Z,51.27
2023-01-22T06:53:23.540Z,59.75
2023-01-22T06:54:24.553Z,52.01
2023-01-22T06:55:23.540Z,57.60
2023-01-22T06:56:23.555Z,50.87
2023-01-22T06:57:23.521Z,52.95
2023-01-22T06:58:23.517Z,54.42
2023-01-22T06:59:23.509Z,63.77
2023-01-22T07:00:23.500Z,60.11
2023-01-22T07:01:23.529Z,47.81
2023-01-22T07:02:23.484Z,55.34
2023-01-22T07:03:23.519Z,57.14
2023-01-22T07:04:23.473Z,54.83
2023-01-22T07:05:23.463Z,54.95
2023-01-22T07:06:23.569Z,61.14
2023-01-22T07:07:23.447Z,59.87
2023-01-22T07:08:23.441Z,57.47
2023-01-22T07:09:23.435Z,46.99
2023-01-22T07:10:23.424Z,58.16
2023-01-22T07:11:23.424Z,51.87
2023-01-22T07:12:23.441Z,53.21
2023-01-22T07:13:23.403Z,47.89
2023-01-22T07:14:36.107Z,58.75
2023-01-22T07:15:25.380Z,55.56
2023-01-22T07:16:23.393Z,55.07
2023-01-22T07:17:23.398Z,52.90
2023-01-22T07:18:23.368Z,56.96
2023-01-22T07:19:23.363Z,53.12
2023-01-22T07:20:23.350Z,54.58
2023-01-22T07:21:23.350Z,55.26
2023-01-22T07:22:23.433Z,57.58
2023-01-22T07:23:23.330Z,56.81
2023-01-22T07:24:23.326Z,51.78
2023-01-22T07:25:23.317Z,58.18
2023-01-22T07:26:23.318Z,63.70
2023-01-22T07:27:23.330Z,59.10
2023-01-22T07:28:23.298Z,53.58
2023-01-22T07:29:23.283Z,59.26
2023-01-22T07:30:23.344Z,60.17
2023-01-22T07:31:23.328Z,67.95
2023-01-22T07:32:23.293Z,60.12
2023-01-22T07:33:23.270Z,59.16
2023-01-22T07:34:23.256Z,51.42
2023-01-22T07:35:23.240Z,59.31
2023-01-22T07:36:23.243Z,53.50
2023-01-22T07:37:23.258Z,60.84
2023-01-22T07:38:23.298Z,59.27
2023-01-22T07:39:23.214Z,69.00
2023-01-22T07:40:23.213Z,55.01
2023-01-22T07:41:26.016Z,53.99
2023-01-22T07:42:24.216Z,53.63
2023-01-22T07:43:23.187Z,56.11
2023-01-22T07:44:23.185Z,56.51
2023-01-22T07:45:23.176Z,61.14
2023-01-22T07:46:23.188Z,53.73
2023-01-22T07:47:23.180Z,55.81
2023-01-22T07:48:23.151Z,55.78
2023-01-22T07:49:23.143Z,54.39
2023-01-22T07:50:23.132Z,55.58
2023-01-22T07:51:23.149Z,60.38
2023-01-22T07:52:23.146Z,68.17
2023-01-22T07:53:23.115Z,60.19
2023-01-22T07:54:23.203Z,55.17
2023-01-22T07:55:23.114Z,54.81
2023-01-22T07:56:23.099Z,61.17
2023-01-22T07:57:23.113Z,57.01
2023-01-22T07:58:23.081Z,65.53
2023-01-22T07:59:23.077Z,59.33
2023-01-22T08:00:23.071Z,51.70
2023-01-22T08:01:23.060Z,47.55
2023-01-22T08:02:23.114Z,54.72
2023-01-22T08:03:23.044Z,52.71
2023-01-22T08:04:23.045Z,54.46
2023-01-22T08:05:23.029Z,57.72
2023-01-22T08:06:23.020Z,58.01
2023-01-22T08:07:23.040Z,60.20
2023-01-22T08:08:23.007Z,57.47
2023-01-22T08:09:23.000Z,53.89
2023-01-22T08:10:23.064Z,60.61
2023-01-22T08:11:22.990Z,59.01
2023-01-22T08:12:23.002Z,62.84
2023-01-22T08:13:22.982Z,57.10
2023-01-22T08:14:22.961Z,56.06
2023-01-22T08:15:22.957Z,56.71
2023-01-22T08:16:22.954Z,58.89
2023-01-22T08:17:22.966Z,59.48
2023-01-22T08:18:23.138Z,57.00
2023-01-22T08:19:23.922Z,55.34
2023-01-22T08:20:23.922Z,64.43
2023-01-22T08:21:22.912Z,59.10
2023-01-22T08:22:22.929Z,61.81
2023-01-22T08:23:22.899Z,58.51
2023-01-22T08:24:22.888Z,59.29
2023-01-22T08:25:22.878Z,60.29
2023-01-22T08:26:22.955Z,60.67
2023-01-22T08:27:22.889Z,59.76
2023-01-22T08:28:22.851Z,60.62
2023-01-22T08:29:22.846Z,58.83
2023-01-22T08:30:22.851Z,58.63
2023-01-22T08:31:28.342Z,59.29
2023-01-22T08:32:24.948Z,67.35
2023-01-22T08:33:22.814Z,60.20
2023-01-22T08:34:22.815Z,62.56
2023-01-22T08:35:24.469Z,61.83
2023-01-22T08:36:22.790Z,61.05
2023-01-22T08:37:22.809Z,61.19
2023-01-22T08:38:22.781Z,53.44
2023-01-22T08:39:22.772Z,60.54
2023-01-22T08:40:22.768Z,64.10
2023-01-22T08:41:22.764Z,62.03
2023-01-22T08:42:22.874Z,63.16
2023-01-22T08:43:22.743Z,62.01
2023-01-22T08:44:22.722Z,54.89
2023-01-22T08:45:23.727Z,63.74
2023-01-22T08:46:22.717Z,66.11
2023-01-22T08:47:22.733Z,61.80
2023-01-22T08:48:22.699Z,62.18
2023-01-22T08:49:22.694Z,56.02
2023-01-22T08:50:22.686Z,62.09
2023-01-22T08:51:22.779Z,64.88
2023-01-22T08:52:22.695Z,63.15
2023-01-22T08:53:23.663Z,63.31
2023-01-22T08:54:22.654Z,55.96
2023-01-22T08:55:22.641Z,58.23
2023-01-22T08:56:22.636Z,57.50
2023-01-22T08:57:22.662Z,55.04
2023-01-22T08:58:28.485Z,60.14
2023-01-22T08:59:23.678Z,57.25
2023-01-22T09:00:23.613Z,61.54
2023-01-22T09:01:22.638Z,59.69
2023-01-22T09:02:22.642Z,56.42
2023-01-22T09:03:22.584Z,59.58
2023-01-22T09:04:22.575Z,54.82
2023-01-22T09:05:22.565Z,56.76
2023-01-22T09:06:22.562Z,57.65
2023-01-22T09:07:22.577Z,61.43
2023-01-22T09:08:22.545Z,58.97
2023-01-22T09:09:22.540Z,61.98
2023-01-22T09:10:22.748Z,60.21
2023-01-22T09:11:22.525Z,62.21
2023-01-22T09:12:22.544Z,60.67
2023-01-22T09:13:22.513Z,59.91
2023-01-22T09:14:22.508Z,65.35
2023-01-22T09:15:22.565Z,61.82
2023-01-22T09:16:22.511Z,61.50
2023-01-22T09:17:22.502Z,65.10
2023-01-22T09:18:22.468Z,60.78
2023-01-22T09:19:22.466Z,60.68
2023-01-22T09:20:22.522Z,59.43
2023-01-22T09:21:22.464Z,61.01
2023-01-22T09:22:22.469Z,60.60
2023-01-22T09:23:22.467Z,60.82
2023-01-22T09:24:22.426Z,62.01
2023-01-22T09:25:22.435Z,61.75
2023-01-22T09:26:22.418Z,64.30
2023-01-22T09:27:22.441Z,59.25
2023-01-22T09:28:22.414Z,60.10
2023-01-22T09:29:22.396Z,58.10
2023-01-22T09:30:22.453Z,55.41
2023-01-22T09:31:22.502Z,53.38
2023-01-22T09:32:22.393Z,57.42
2023-01-22T09:33:22.365Z,62.22
2023-01-22T09:34:22.352Z,60.73
2023-01-22T09:35:22.345Z,60.21
2023-01-22T09:36:22.337Z,56.86
2023-01-22T09:37:22.359Z,60.42
2023-01-22T09:38:22.319Z,63.26
2023-01-22T09:39:22.318Z,61.05
2023-01-22T09:40:22.320Z,57.29
2023-01-22T09:41:22.301Z,60.25
2023-01-22T09:42:22.317Z,60.16
2023-01-22T09:43:22.288Z,62.85
2023-01-22T09:44:22.277Z,57.44
2023-01-22T09:45:22.271Z,59.00
2023-01-22T09:46:22.318Z,59.00
2023-01-22T09:47:22.360Z,62.12
2023-01-22T09:48:22.250Z,57.59
2023-01-22T09:49:22.261Z,62.29
2023-01-22T09:50:22.273Z,60.96
2023-01-22T09:51:22.310Z,61.67
2023-01-22T09:52:22.240Z,61.48
2023-01-22T09:53:22.207Z,64.69
2023-01-22T09:54:22.231Z,59.31
2023-01-22T09:55:22.192Z,64.93
2023-01-22T09:56:22.194Z,62.17
2023-01-22T09:57:31.231Z,59.10
2023-01-22T09:58:24.176Z,62.02
2023-01-22T09:59:22.166Z,64.46
2023-01-22T10:00:22.209Z,62.94
2023-01-22T10:01:22.168Z,64.29
2023-01-22T10:02:22.182Z,61.77
2023-01-22T10:03:22.929Z,61.27
2023-01-22T10:04:23.133Z,59.80
2023-01-22T10:05:22.111Z,59.18
2023-01-22T10:06:23.110Z,55.29
2023-01-22T10:07:22.105Z,54.52
2023-01-22T10:08:22.128Z,64.49
2023-01-22T10:09:22.091Z,63.02
2023-01-22T10:10:22.161Z,58.84
2023-01-22T10:11:22.078Z,64.14
2023-01-22T10:12:22.059Z,62.51
2023-01-22T10:13:22.094Z,62.88
2023-01-22T10:14:22.054Z,61.06
2023-01-22T10:15:22.042Z,64.09
2023-01-22T10:16:22.061Z,63.34
2023-01-22T10:17:22.030Z,62.64
2023-01-22T10:18:22.043Z,61.73
2023-01-22T10:19:22.139Z,62.08
2023-01-22T10:20:22.009Z,66.58
2023-01-22T10:21:21.998Z,60.77
2023-01-22T10:22:21.989Z,63.93
2023-01-22T10:23:22.006Z,60.75
2023-01-22T10:24:21.975Z,60.87
2023-01-22T10:25:21.969Z,63.35
2023-01-22T10:26:21.979Z,62.82
2023-01-22T10:27:21.970Z,61.99
2023-01-22T10:28:21.969Z,61.72
2023-01-22T10:29:21.976Z,63.18
2023-01-22T10:30:22.123Z,63.80
2023-01-22T10:31:23.868Z,61.81
2023-01-22T10:32:21.951Z,61.10
2023-01-22T10:33:21.936Z,59.63
2023-01-22T10:34:21.896Z,62.90
2023-01-22T10:35:21.967Z,62.81
2023-01-22T10:36:21.882Z,60.85
2023-01-22T10:37:21.885Z,61.16
2023-01-22T10:38:21.905Z,60.90
2023-01-22T10:39:21.881Z,63.98
2023-01-22T10:40:21.857Z,63.35
2023-01-22T10:41:21.844Z,62.92
2023-01-22T10:42:21.835Z,64.30
2023-01-22T10:43:21.855Z,61.67
2023-01-22T10:44:21.850Z,61.13
2023-01-22T10:45:21.820Z,64.05
2023-01-22T10:46:21.887Z,64.43
2023-01-22T10:47:21.806Z,64.45
2023-01-22T10:48:21.826Z,61.91
2023-01-22T10:49:21.787Z,64.61
2023-01-22T10:50:22.210Z,62.41
2023-01-22T10:51:21.885Z,62.40
2023-01-22T10:52:21.767Z,64.47
2023-01-22T10:53:21.789Z,63.30
2023-01-22T10:54:21.755Z,64.15
2023-01-22T10:55:21.743Z,65.96
2023-01-22T10:56:21.736Z,65.59
2023-01-22T10:57:21.729Z,64.31
2023-01-22T10:58:21.741Z,62.35
2023-01-22T10:59:21.705Z,60.06
2023-01-22T11:00:22.013Z,62.30
2023-01-22T11:01:21.706Z,65.47
2023-01-22T11:02:21.722Z,63.81
2023-01-22T11:03:21.703Z,63.03
2023-01-22T11:04:21.678Z,65.49
2023-01-22T11:05:21.666Z,61.85
2023-01-22T11:06:21.658Z,60.74
2023-01-22T11:07:21.725Z,61.66
2023-01-22T11:08:21.669Z,65.91
2023-01-22T11:09:21.640Z,67.52
2023-01-22T11:10:22.082Z,64.18
2023-01-22T11:11:21.627Z,62.53
2023-01-22T11:12:21.613Z,59.86
2023-01-22T11:13:21.638Z,63.72
2023-01-22T11:14:21.609Z,62.78
2023-01-22T11:15:21.597Z,64.56
2023-01-22T11:16:21.589Z,64.99
2023-01-22T11:17:21.579Z,63.35
2023-01-22T11:18:21.570Z,65.63
2023-01-22T11:19:32.647Z,60.89
2023-01-22T11:20:23.646Z,57.48
2023-01-22T11:21:21.557Z,61.92
2023-01-22T11:22:21.542Z,65.05
2023-01-22T11:23:21.611Z,64.96
2023-01-22T11:24:21.552Z,60.38
2023-01-22T11:25:21.527Z,63.99
2023-01-22T11:26:21.514Z,58.45
2023-01-22T11:27:21.506Z,64.57
2023-01-22T11:28:21.504Z,60.16
2023-01-22T11:29:21.516Z,62.17
2023-01-22T11:30:21.634Z,61.75
2023-01-22T11:31:21.597Z,61.53
2023-01-22T11:32:21.473Z,63.66
2023-01-22T11:33:21.461Z,61.17
2023-01-22T11:34:21.483Z,63.11
2023-01-22T11:35:21.449Z,62.87
2023-01-22T11:36:21.439Z,60.61
2023-01-22T11:37:21.439Z,60.92
2023-01-22T11:38:21.429Z,64.11
2023-01-22T11:39:22.512Z,62.67
2023-01-22T11:40:22.583Z,65.41
2023-01-22T11:41:21.408Z,62.94
2023-01-22T11:42:21.395Z,59.42
2023-01-22T11:43:21.385Z,60.61
2023-01-22T11:44:21.419Z,64.09
2023-01-22T11:45:21.371Z,62.58
2023-01-22T11:46:21.501Z,63.19
2023-01-22T11:47:21.373Z,63.27
2023-01-22T11:48:21.346Z,62.67
2023-01-22T11:49:21.366Z,62.17
2023-01-22T11:50:21.672Z,62.25
2023-01-22T11:51:21.389Z,64.53
2023-01-22T11:52:21.324Z,69.41
2023-01-22T11:53:21.313Z,64.58
2023-01-22T11:54:21.335Z,61.63
2023-01-22T11:55:21.374Z,61.68
2023-01-22T11:56:21.303Z,65.76
2023-01-22T11:57:21.284Z,63.41
2023-01-22T11:58:21.277Z,64.25
2023-01-22T11:59:21.294Z,69.63
2023-01-22T12:00:21.536Z,62.21
2023-01-22T12:01:21.252Z,60.94
2023-01-22T12:02:21.276Z,65.13
2023-01-22T12:03:21.243Z,63.00
2023-01-22T12:04:21.263Z,65.71
2023-01-22T12:05:21.226Z,63.92
2023-01-22T12:06:21.215Z,63.86
2023-01-22T12:07:21.211Z,63.01
2023-01-22T12:08:21.199Z,63.73
2023-01-22T12:09:21.219Z,64.78
2023-01-22T12:10:21.504Z,65.32
2023-01-22T12:11:21.256Z,62.89
2023-01-22T12:12:21.177Z,62.27
2023-01-22T12:13:21.159Z,63.53
2023-01-22T12:14:21.156Z,62.96
2023-01-22T12:15:21.180Z,64.12
2023-01-22T12:16:21.185Z,63.46
2023-01-22T12:17:21.132Z,63.00
2023-01-22T12:18:21.123Z,64.72
2023-01-22T12:19:21.119Z,62.22
2023-01-22T12:20:21.379Z,60.97
2023-01-22T12:21:21.105Z,66.72
2023-01-22T12:22:21.096Z,64.72
2023-01-22T12:23:21.095Z,62.55
2023-01-22T12:24:21.079Z,59.02
2023-01-22T12:25:21.095Z,62.82
2023-01-22T12:26:21.063Z,62.31
2023-01-22T12:27:21.131Z,62.44
2023-01-22T12:28:21.059Z,60.43
2023-01-22T12:29:21.054Z,63.39
2023-01-22T12:30:21.104Z,62.94
2023-01-22T12:31:21.139Z,63.24
2023-01-22T12:32:21.020Z,59.30
2023-01-22T12:33:21.008Z,63.71
2023-01-22T12:34:21.007Z,65.60
2023-01-22T12:35:22.025Z,63.71
2023-01-22T12:36:20.988Z,64.01
2023-01-22T12:37:20.986Z,66.17
2023-01-22T12:38:21.001Z,68.80
2023-01-22T12:39:20.967Z,60.96
2023-01-22T12:40:21.233Z,62.11
2023-01-22T12:41:20.966Z,63.57
2023-01-22T12:42:20.944Z,61.58
2023-01-22T12:43:21.023Z,59.23
2023-01-22T12:44:20.929Z,68.33
2023-01-22T12:45:20.941Z,63.75
2023-01-22T12:46:20.947Z,64.39
2023-01-22T12:47:20.905Z,63.77
2023-01-22T12:48:20.912Z,63.84
2023-01-22T12:49:20.892Z,64.28
2023-01-22T12:50:21.174Z,58.48
2023-01-22T12:51:21.950Z,63.11
2023-01-22T12:52:20.889Z,63.73